Time;durP1;ratioP1;P1;durP2;ratioP2;P2;SDS_P1;SDS_P2;PMS_P1;PMS_P2;Temp;Humidity;BMP_temperature;BMP_pressure;BME280_temperature;BME280_humidity;BME280_pressure;Samples;Min_cycle;Max_cycle;Signal;HPM_P1;HPM_P2
2022/06/10 00:01:50;;;;;;;9.97;4.00;;;;;;;;;;5100961;28;20024;-78
2022/06/10 00:04:17;;;;;;;11.17;4.93;;;;;;;;;;5097293;28;20024;-78
2022/06/10 00:06:44;;;;;;;12.83;4.40;;;;;;;;;;5091192;28;20044;-78
2022/06/10 00:09:12;;;;;;;7.83;3.50;;;;;;;;;;5087020;28;20028;-77
2022/06/10 00:11:39;;;;;;;21.43;5.00;;;;;;;;;;5087563;28;20055;-77
2022/06/10 00:14:06;;;;;;;8.80;4.47;;;;;;;;;;5087361;28;20032;-78
2022/06/10 00:16:33;;;;;;;7.93;4.47;;;;;;;;;;5088622;28;20103;-77
2022/06/10 00:19:00;;;;;;;8.67;4.17;;;;;;;;;;5074590;28;20020;-77
2022/06/10 00:21:26;;;;;;;5.33;3.27;;;;;;;;;;5072170;28;20564;-77
2022/06/10 00:23:53;;;;;;;6.17;3.40;;;;;;;;;;5072110;28;20033;-77
2022/06/10 00:26:20;;;;;;;6.97;3.70;;;;;;;;;;5071325;28;20107;-77
2022/06/10 00:28:48;;;;;;;6.07;3.27;;;;;;;;;;5070883;28;20017;-77
2022/06/10 00:31:15;;;;;;;5.27;3.90;;;;;;;;;;5067012;28;20027;-78
2022/06/10 00:33:41;;;;;;;7.03;3.30;;;;;;;;;;5049319;28;20375;-77
2022/06/10 00:36:09;;;;;;;8.50;3.80;;;;;;;;;;5066792;28;20024;-78
2022/06/10 00:38:35;;;;;;;8.97;4.23;;;;;;;;;;5067510;28;20021;-77
2022/06/10 00:41:02;;;;;;;5.67;3.40;;;;;;;;;;5071762;28;20075;-78
2022/06/10 00:43:33;;;;;;;6.37;3.77;;;;;;;;;;5071264;28;20119;-77
2022/06/10 00:46:02;;;;;;;7.47;3.90;;;;;;;;;;5075804;28;20474;-77
2022/06/10 00:48:41;;;;;;;5.40;3.50;;;;;;;;;;5092126;28;20016;-77
2022/06/10 00:51:17;;;;;;;8.50;3.13;;;;;;;;;;5090711;28;20074;-77
2022/06/10 00:53:44;;;;;;;5.07;3.43;;;;;;;;;;5086604;28;20030;-76
2022/06/10 00:56:14;;;;;;;5.23;3.30;;;;;;;;;;5087156;28;20103;-77
2022/06/10 00:58:47;;;;;;;4.87;3.00;;;;;;;;;;5086892;28;20499;-77
2022/06/10 01:01:14;;;;;;;4.53;3.00;;;;;;;;;;5087850;28;20042;-77
2022/06/10 01:03:41;;;;;;;6.07;4.03;;;;;;;;;;5095507;28;20028;-77
2022/06/10 01:06:09;;;;;;;4.20;3.00;;;;;;;;;;5095508;28;20425;-77
2022/06/10 01:08:37;;;;;;;8.53;3.10;;;;;;;;;;5095070;28;20088;-76
2022/06/10 01:11:23;;;;;;;5.90;3.43;;;;;;;;;;5095474;28;20020;-76
2022/06/10 01:13:52;;;;;;;5.50;3.57;;;;;;;;;;5093376;28;20028;-76
2022/06/10 01:16:31;;;;;;;5.97;3.53;;;;;;;;;;5090184;28;20024;-69
2022/06/10 01:19:04;;;;;;;6.77;3.53;;;;;;;;;;5087273;28;20157;-70
2022/06/10 01:21:46;;;;;;;9.03;3.80;;;;;;;;;;5090245;28;20028;-72
2022/06/10 01:24:32;;;;;;;6.43;3.87;;;;;;;;;;5092447;28;20413;-71
2022/06/10 01:30:21;;;;;;;4.93;2.97;;;;;;;;;;5095024;28;20117;-75
2022/06/10 01:32:47;;;;;;;;;;;;;;;;;;5095582;28;20026;-76
2022/06/10 01:35:30;;;;;;;6.43;4.30;;;;;;;;;;5095021;28;19957;-75
2022/06/10 01:38:14;;;;;;;5.10;3.60;;;;;;;;;;5089952;28;20034;-75
2022/06/10 01:41:07;;;;;;;6.80;4.43;;;;;;;;;;5089168;28;20474;-74
2022/06/10 01:43:33;;;;;;;6.30;4.10;;;;;;;;;;5085541;28;20028;-74
2022/06/10 01:46:03;;;;;;;8.20;5.33;;;;;;;;;;5090707;28;20103;-74
2022/06/10 01:48:48;;;;;;;7.57;5.30;;;;;;;;;;5094767;28;20021;-74
2022/06/10 01:51:15;;;;;;;9.77;6.40;;;;;;;;;;5094596;28;20024;-75
2022/06/10 01:53:45;;;;;;;12.60;6.57;;;;;;;;;;5094643;28;20028;-75
2022/06/10 01:56:22;;;;;;;10.33;5.87;;;;;;;;;;5094583;28;20352;-75
2022/06/10 01:58:53;;;;;;;9.97;6.23;;;;;;;;;;5092095;28;20028;-75
2022/06/10 02:01:23;;;;;;;9.73;5.40;;;;;;;;;;5089456;28;20032;-75
2022/06/10 02:03:54;;;;;;;8.17;4.80;;;;;;;;;;5089316;28;20028;-75
2022/06/10 02:06:25;;;;;;;7.47;4.60;;;;;;;;;;5088903;28;20031;-74
2022/06/10 02:08:54;;;;;;;7.17;4.30;;;;;;;;;;5090982;28;20090;-75
2022/06/10 02:11:22;;;;;;;9.70;4.37;;;;;;;;;;5094194;28;20024;-75
2022/06/10 02:13:56;;;;;;;10.73;3.73;;;;;;;;;;5093035;28;20090;-74
2022/06/10 02:16:26;;;;;;;9.23;3.45;;;;;;;;;;5094122;28;20028;-75
2022/06/10 02:18:52;;;;;;;6.67;4.10;;;;;;;;;;5093852;28;20024;-74
2022/06/10 02:21:19;;;;;;;6.80;4.70;;;;;;;;;;5091806;28;20102;-75
2022/06/10 02:23:48;;;;;;;9.63;5.70;;;;;;;;;;5089052;28;20352;-75
2022/06/10 02:26:16;;;;;;;9.20;5.30;;;;;;;;;;5088961;28;20115;-75
2022/06/10 02:28:45;;;;;;;7.67;4.90;;;;;;;;;;5088726;28;20027;-75
2022/06/10 02:31:16;;;;;;;10.00;5.43;;;;;;;;;;5090755;28;20133;-75
2022/06/10 02:33:43;;;;;;;8.00;4.47;;;;;;;;;;5093518;28;20099;-74
2022/06/10 02:36:15;;;;;;;7.07;4.80;;;;;;;;;;5093803;28;20020;-75
2022/06/10 02:39:01;;;;;;;7.80;4.40;;;;;;;;;;5093841;28;20027;-75
2022/06/10 02:41:46;;;;;;;7.47;4.70;;;;;;;;;;5093955;28;20032;-75
2022/06/10 02:44:23;;;;;;;6.38;4.28;;;;;;;;;;5089185;28;20099;-75
2022/06/10 02:46:50;;;;;;;7.60;4.13;;;;;;;;;;5088333;28;20055;-75
2022/06/10 02:49:18;;;;;;;6.90;4.13;;;;;;;;;;5087918;28;20035;-75
2022/06/10 02:51:46;;;;;;;7.90;4.33;;;;;;;;;;5088230;28;20573;-74
2022/06/10 02:54:16;;;;;;;9.90;5.70;;;;;;;;;;5091796;28;20051;-74
2022/06/10 02:56:42;;;;;;;9.23;4.63;;;;;;;;;;5093277;28;20020;-74
2022/06/10 03:02:22;;;;;;;8.17;5.10;;;;;;;;;;5093255;28;20031;-74
2022/06/10 03:04:48;;;;;;;9.00;4.00;;;;;;;;;;5069806;28;20032;-74
2022/06/10 03:07:24;;;;;;;7.33;4.37;;;;;;;;;;5088066;28;20024;-74
2022/06/10 03:09:58;;;;;;;8.77;4.63;;;;;;;;;;5088244;28;20475;-74
2022/06/10 03:12:39;;;;;;;8.80;4.20;;;;;;;;;;5088105;28;20471;-74
2022/06/10 03:15:12;;;;;;;7.17;4.37;;;;;;;;;;5087929;28;20028;-74
2022/06/10 03:17:46;;;;;;;7.00;4.03;;;;;;;;;;5092283;28;20375;-74
2022/06/10 03:20:19;;;;;;;7.33;4.10;;;;;;;;;;5093110;28;20024;-74
2022/06/10 03:23:00;;;;;;;10.47;4.90;;;;;;;;;;5093086;28;20024;-74
2022/06/10 03:25:30;;;;;;;8.63;4.70;;;;;;;;;;5091853;28;20027;-74
2022/06/10 03:28:08;;;;;;;5.87;4.07;;;;;;;;;;5091097;28;20042;-75
2022/06/10 03:30:38;;;;;;;6.90;3.97;;;;;;;;;;5087734;28;20036;-75
2022/06/10 03:33:04;;;;;;;5.93;4.07;;;;;;;;;;5087782;28;20382;-74
2022/06/10 03:35:34;;;;;;;7.97;4.00;;;;;;;;;;5087651;28;20020;-74
2022/06/10 03:38:05;;;;;;;7.93;4.43;;;;;;;;;;5089097;28;20032;-75
2022/06/10 03:40:32;;;;;;;7.30;4.40;;;;;;;;;;5092606;28;20117;-74
2022/06/10 03:43:01;;;;;;;8.27;4.23;;;;;;;;;;5092126;28;20032;-74
2022/06/10 03:45:30;;;;;;;7.60;5.03;;;;;;;;;;5092442;28;20028;-74
2022/06/10 03:47:57;;;;;;;6.73;4.17;;;;;;;;;;5092586;28;20028;-75
2022/06/10 03:50:26;;;;;;;7.33;3.63;;;;;;;;;;5090781;28;20020;-74
2022/06/10 03:52:52;;;;;;;5.23;3.43;;;;;;;;;;5087463;28;20028;-74
2022/06/10 03:55:20;;;;;;;6.27;3.27;;;;;;;;;;5087400;28;20028;-74
2022/06/10 03:57:47;;;;;;;5.70;3.50;;;;;;;;;;5087148;28;20503;-74
2022/06/10 04:00:25;;;;;;;7.77;3.90;;;;;;;;;;5087981;28;20087;-74
2022/06/10 04:02:52;;;;;;;11.03;4.33;;;;;;;;;;5092441;28;20107;-74
2022/06/10 04:05:19;;;;;;;7.43;3.30;;;;;;;;;;5091785;28;20028;-73
2022/06/10 04:07:46;;;;;;;6.63;3.83;;;;;;;;;;5092425;28;20072;-74
2022/06/10 04:10:15;;;;;;;7.00;4.03;;;;;;;;;;5092038;28;20024;-74
2022/06/10 04:12:42;;;;;;;5.93;3.80;;;;;;;;;;5090352;28;20078;-74
2022/06/10 04:15:09;;;;;;;7.37;4.20;;;;;;;;;;5087327;28;20474;-74
2022/06/10 04:17:36;;;;;;;8.57;3.90;;;;;;;;;;5085281;28;20875;-74
2022/06/10 04:20:03;;;;;;;7.17;3.47;;;;;;;;;;5086386;28;20024;-74
2022/06/10 04:22:30;;;;;;;9.50;4.53;;;;;;;;;;5088161;28;20020;-74
2022/06/10 04:24:57;;;;;;;4.70;3.30;;;;;;;;;;5091545;28;20662;-74
2022/06/10 04:27:23;;;;;;;5.73;3.40;;;;;;;;;;5091416;28;20119;-74
2022/06/10 04:29:50;;;;;;;7.13;3.80;;;;;;;;;;5091997;28;20032;-74
2022/06/10 04:32:17;;;;;;;6.10;3.67;;;;;;;;;;5091317;28;20028;-74
2022/06/10 04:34:43;;;;;;;5.17;3.53;;;;;;;;;;5090352;28;20028;-74
2022/06/10 04:37:10;;;;;;;5.23;3.10;;;;;;;;;;5089038;28;20432;-74
2022/06/10 04:39:37;;;;;;;5.27;3.30;;;;;;;;;;5091040;28;20028;-73
2022/06/10 04:42:05;;;;;;;6.17;3.53;;;;;;;;;;5090710;28;20047;-73
2022/06/10 04:44:32;;;;;;;5.87;3.40;;;;;;;;;;5089935;28;20019;-74
2022/06/10 04:46:58;;;;;;;6.33;3.20;;;;;;;;;;5095733;28;20027;-74
2022/06/10 04:49:25;;;;;;;6.50;3.83;;;;;;;;;;5095167;28;20779;-75
2022/06/10 04:51:52;;;;;;;6.97;3.20;;;;;;;;;;5095480;28;20024;-74
2022/06/10 04:54:18;;;;;;;4.53;2.70;;;;;;;;;;5095842;28;20031;-74
2022/06/10 04:56:45;;;;;;;8.03;3.00;;;;;;;;;;5094784;28;20023;-73
2022/06/10 04:59:12;;;;;;;6.10;3.60;;;;;;;;;;5090455;28;20054;-73
2022/06/10 05:01:38;;;;;;;7.07;3.67;;;;;;;;;;5090433;28;20107;-74
2022/06/10 05:04:05;;;;;;;5.97;3.70;;;;;;;;;;5090427;28;20027;-74
2022/06/10 05:06:32;;;;;;;6.33;2.97;;;;;;;;;;5090522;28;20057;-74
2022/06/10 05:08:59;;;;;;;5.57;2.90;;;;;;;;;;5094496;28;20140;-74
2022/06/10 05:11:25;;;;;;;7.30;3.50;;;;;;;;;;5095244;28;20089;-74
2022/06/10 05:13:52;;;;;;;8.53;3.40;;;;;;;;;;5095420;28;20028;-74
2022/06/10 05:16:19;;;;;;;5.53;4.10;;;;;;;;;;5095271;28;20028;-74
2022/06/10 05:18:46;;;;;;;9.00;4.00;;;;;;;;;;5079343;28;20024;-74
2022/06/10 05:21:13;;;;;;;9.60;4.27;;;;;;;;;;5070097;28;20029;-73
2022/06/10 05:23:44;;;;;;;7.30;4.13;;;;;;;;;;5070176;28;20021;-74
2022/06/10 05:26:12;;;;;;;7.33;3.40;;;;;;;;;;5069761;28;20028;-71
2022/06/10 05:28:39;;;;;;;5.50;3.83;;;;;;;;;;5069895;28;20016;-75
2022/06/10 05:31:06;;;;;;;4.60;2.93;;;;;;;;;;5073666;28;20049;-70
2022/06/10 05:36:18;;;;;;;5.50;3.28;;;;;;;;;;5094311;28;20513;-73
2022/06/10 05:38:45;;;;;;;9.27;3.80;;;;;;;;;;5094890;28;20057;-72
2022/06/10 05:43:57;;;;;;;7.20;3.53;;;;;;;;;;5088878;28;20042;-72
2022/06/10 05:46:24;;;;;;;7.23;4.13;;;;;;;;;;5089410;28;20028;-73
2022/06/10 05:48:50;;;;;;;5.73;3.37;;;;;;;;;;5088326;28;20024;-72
2022/06/10 05:51:18;;;;;;;9.87;3.90;;;;;;;;;;5089129;28;20036;-72
2022/06/10 05:53:45;;;;;;;9.77;4.27;;;;;;;;;;5094330;28;20027;-72
2022/06/10 05:56:12;;;;;;;9.13;3.50;;;;;;;;;;5094458;28;20027;-72
2022/06/10 05:58:39;;;;;;;4.87;3.23;;;;;;;;;;5094466;28;20146;-72
2022/06/10 06:01:05;;;;;;;6.80;4.43;;;;;;;;;;5093561;28;20047;-72
2022/06/10 06:03:32;;;;;;;7.23;4.30;;;;;;;;;;5094205;28;20028;-72
2022/06/10 06:05:59;;;;;;;9.10;5.03;;;;;;;;;;5089074;28;20020;-72
2022/06/10 06:08:25;;;;;;;11.67;6.67;;;;;;;;;;5088688;28;20040;-72
2022/06/10 06:10:52;;;;;;;8.97;5.93;;;;;;;;;;5088969;28;20099;-72
2022/06/10 06:13:19;;;;;;;7.20;4.60;;;;;;;;;;5088760;28;20034;-72
2022/06/10 06:15:45;;;;;;;9.27;4.80;;;;;;;;;;5093321;28;20471;-72
2022/06/10 06:18:13;;;;;;;9.40;4.87;;;;;;;;;;5093861;28;20028;-72
2022/06/10 06:20:40;;;;;;;5.60;4.00;;;;;;;;;;5093906;28;20036;-72
2022/06/10 06:23:07;;;;;;;5.53;3.20;;;;;;;;;;5094045;28;20035;-72
2022/06/10 06:25:33;;;;;;;5.93;3.70;;;;;;;;;;5093508;28;20107;-72
2022/06/10 06:28:00;;;;;;;8.60;5.07;;;;;;;;;;5089152;28;20035;-72
2022/06/10 06:30:32;;;;;;;7.97;3.90;;;;;;;;;;5088512;28;20138;-72
2022/06/10 06:33:00;;;;;;;6.33;3.83;;;;;;;;;;5088200;28;20493;-72
2022/06/10 06:35:26;;;;;;;10.17;4.07;;;;;;;;;;5088339;28;20038;-72
2022/06/10 06:37:53;;;;;;;5.13;3.50;;;;;;;;;;5092524;28;20020;-72
2022/06/10 06:40:21;;;;;;;8.43;4.60;;;;;;;;;;5093674;28;20119;-72
2022/06/10 06:42:47;;;;;;;5.60;4.03;;;;;;;;;;5093386;28;20035;-72
2022/06/10 06:45:15;;;;;;;6.33;4.17;;;;;;;;;;5093493;28;20104;-72
2022/06/10 06:47:42;;;;;;;7.53;3.70;;;;;;;;;;5093077;28;20348;-73
2022/06/10 06:50:09;;;;;;;5.63;3.20;;;;;;;;;;5088634;28;20034;-72
2022/06/10 06:52:36;;;;;;;5.27;3.50;;;;;;;;;;5087976;28;20031;-72
2022/06/10 06:55:03;;;;;;;10.77;3.73;;;;;;;;;;5088138;28;20063;-72
2022/06/10 06:57:30;;;;;;;9.03;3.87;;;;;;;;;;5087859;28;20023;-72
2022/06/10 07:00:06;;;;;;;5.73;4.20;;;;;;;;;;5091092;28;20048;-72
2022/06/10 07:02:33;;;;;;;5.47;3.60;;;;;;;;;;5093061;28;20028;-72
2022/06/10 07:05:00;;;;;;;5.63;3.50;;;;;;;;;;5093161;28;20436;-72
2022/06/10 07:07:27;;;;;;;5.97;3.30;;;;;;;;;;5093170;28;20039;-72
2022/06/10 07:09:53;;;;;;;5.80;4.07;;;;;;;;;;5092949;28;20483;-72
2022/06/10 07:12:20;;;;;;;5.70;3.50;;;;;;;;;;5088490;28;20039;-72
2022/06/10 07:14:47;;;;;;;7.47;3.97;;;;;;;;;;5087870;28;20031;-72
2022/06/10 07:17:14;;;;;;;5.50;3.50;;;;;;;;;;5087087;28;20024;-72
2022/06/10 07:19:41;;;;;;;6.70;3.90;;;;;;;;;;5087487;28;20059;-72
2022/06/10 07:22:07;;;;;;;5.63;3.60;;;;;;;;;;5091009;28;20390;-72
2022/06/10 07:24:34;;;;;;;6.73;4.40;;;;;;;;;;5092776;28;20104;-72
2022/06/10 07:27:01;;;;;;;7.87;3.80;;;;;;;;;;5092988;28;20106;-72
2022/06/10 07:29:28;;;;;;;6.30;4.70;;;;;;;;;;5092741;28;20106;-72
2022/06/10 07:31:55;;;;;;;7.80;4.63;;;;;;;;;;5092819;28;20406;-72
2022/06/10 07:34:21;;;;;;;7.00;4.20;;;;;;;;;;5088666;28;20031;-72
2022/06/10 07:36:48;;;;;;;6.27;4.20;;;;;;;;;;5087499;28;20047;-72
2022/06/10 07:39:15;;;;;;;6.47;4.37;;;;;;;;;;5086984;28;20052;-73
2022/06/10 07:44:27;;;;;;;7.13;4.10;;;;;;;;;;5090671;28;20406;-72
2022/06/10 07:46:55;;;;;;;11.17;4.07;;;;;;;;;;5092369;28;20038;-72
2022/06/10 07:49:21;;;;;;;6.77;3.90;;;;;;;;;;5092727;28;20404;-71
2022/06/10 07:51:48;;;;;;;7.60;4.63;;;;;;;;;;5092238;28;20020;-72
2022/06/10 07:54:15;;;;;;;5.00;3.83;;;;;;;;;;5092492;28;20024;-72
2022/06/10 07:56:42;;;;;;;5.97;4.47;;;;;;;;;;5088975;28;20026;-72
2022/06/10 07:59:09;;;;;;;8.20;3.77;;;;;;;;;;5087037;28;20471;-72
2022/06/10 08:01:35;;;;;;;6.90;3.80;;;;;;;;;;5086667;28;20028;-72
2022/06/10 08:04:02;;;;;;;12.57;6.13;;;;;;;;;;5086843;28;20031;-72
2022/06/10 08:06:30;;;;;;;6.37;4.10;;;;;;;;;;5089705;28;20081;-72
2022/06/10 08:08:57;;;;;;;5.70;4.07;;;;;;;;;;5091968;28;20036;-72
2022/06/10 08:11:24;;;;;;;7.00;3.83;;;;;;;;;;5092914;28;20016;-69
2022/06/10 08:13:50;;;;;;;6.83;3.70;;;;;;;;;;5096601;28;20028;-70
2022/06/10 08:16:18;;;;;;;6.37;4.03;;;;;;;;;;5096378;28;20028;-69
2022/06/10 08:18:45;;;;;;;5.93;4.23;;;;;;;;;;5093528;28;20035;-70
2022/06/10 08:23:57;;;;;;;5.60;3.78;;;;;;;;;;5091004;28;20169;-70
2022/06/10 08:26:25;;;;;;;5.17;3.77;;;;;;;;;;5090739;28;20052;-69
2022/06/10 08:28:53;;;;;;;5.03;3.90;;;;;;;;;;5093164;28;20028;-69
2022/06/10 08:31:19;;;;;;;4.90;3.70;;;;;;;;;;5096081;28;20020;-69
2022/06/10 08:33:46;;;;;;;6.30;3.57;;;;;;;;;;5096172;28;20020;-70
2022/06/10 08:36:13;;;;;;;5.80;3.43;;;;;;;;;;5096130;28;20173;-69
2022/06/10 08:38:43;;;;;;;5.90;3.87;;;;;;;;;;5095833;28;20047;-69
2022/06/10 08:41:31;;;;;;;9.07;3.93;;;;;;;;;;5092580;28;20437;-70
2022/06/10 08:44:18;;;;;;;7.67;3.93;;;;;;;;;;5090641;28;20019;-70
2022/06/10 08:47:09;;;;;;;6.80;3.57;;;;;;;;;;5072953;28;20591;-70
2022/06/10 08:49:47;;;;;;;5.70;4.00;;;;;;;;;;5090653;28;20063;-70
2022/06/10 08:52:35;;;;;;;10.23;4.63;;;;;;;;;;5095731;28;20048;-70
2022/06/10 08:55:05;;;;;;;7.57;4.87;;;;;;;;;;5095736;28;20026;-70
2022/06/10 08:57:39;;;;;;;7.10;4.27;;;;;;;;;;5095747;28;20028;-70
2022/06/10 09:00:11;;;;;;;9.00;5.37;;;;;;;;;;5094977;28;20044;-70
2022/06/10 09:02:46;;;;;;;8.03;5.60;;;;;;;;;;5093380;28;20028;-70
2022/06/10 09:05:13;;;;;;;9.50;5.25;;;;;;;;;;5089697;28;20020;-70
2022/06/10 09:07:53;;;;;;;8.10;5.03;;;;;;;;;;5089987;28;20039;-70
2022/06/10 09:10:31;;;;;;;7.07;5.57;;;;;;;;;;5090428;28;20080;-70
2022/06/10 09:13:16;;;;;;;10.00;5.03;;;;;;;;;;5092365;28;20051;-70
2022/06/10 09:15:47;;;;;;;6.85;4.78;;;;;;;;;;5095345;28;20099;-70
2022/06/10 09:18:20;;;;;;;8.53;4.60;;;;;;;;;;5095245;28;20111;-70
2022/06/10 09:20:52;;;;;;;6.67;4.50;;;;;;;;;;5094032;28;20032;-70
2022/06/10 09:23:40;;;;;;;6.63;4.47;;;;;;;;;;5094518;28;20036;-70
2022/06/10 09:26:10;;;;;;;6.63;4.27;;;;;;;;;;5090680;28;20103;-71
2022/06/10 09:28:40;;;;;;;6.30;4.30;;;;;;;;;;5089531;28;20043;-70
2022/06/10 09:31:16;;;;;;;9.33;5.13;;;;;;;;;;5089751;28;20027;-70
2022/06/10 09:33:51;;;;;;;6.70;4.27;;;;;;;;;;5089536;28;20394;-70
2022/06/10 09:36:33;;;;;;;8.73;4.85;;;;;;;;;;5093999;28;20031;-70
2022/06/10 09:39:04;;;;;;;6.03;4.30;;;;;;;;;;5094835;28;20492;-70
2022/06/10 09:41:34;;;;;;;6.93;3.90;;;;;;;;;;5094542;28;20483;-70
2022/06/10 09:44:10;;;;;;;8.17;5.30;;;;;;;;;;5094959;28;20024;-69
2022/06/10 09:46:39;;;;;;;7.90;5.37;;;;;;;;;;5093955;28;20028;-69
2022/06/10 09:49:18;;;;;;;11.33;5.23;;;;;;;;;;5089300;28;20347;-68
2022/06/10 09:52:04;;;;;;;5.93;4.50;;;;;;;;;;5088860;28;20479;-68
2022/06/10 09:54:34;;;;;;;6.20;4.03;;;;;;;;;;5089357;28;20482;-69
2022/06/10 09:57:01;;;;;;;5.80;3.63;;;;;;;;;;5090326;28;20102;-69
2022/06/10 09:59:45;;;;;;;8.73;4.40;;;;;;;;;;5094337;28;20020;-69
2022/06/10 10:02:24;;;;;;;6.85;3.53;;;;;;;;;;5094140;28;20028;-68
2022/06/10 10:05:09;;;;;;;6.27;3.70;;;;;;;;;;5094282;28;20527;-68
2022/06/10 10:07:42;;;;;;;6.15;3.50;;;;;;;;;;5093987;28;20024;-70
2022/06/10 10:10:26;;;;;;;8.43;3.97;;;;;;;;;;5091203;28;20056;-68
2022/06/10 10:13:01;;;;;;;6.80;4.13;;;;;;;;;;5088886;28;20062;-69
2022/06/10 10:15:43;;;;;;;8.17;4.07;;;;;;;;;;5088806;28;20023;-69
2022/06/10 10:18:16;;;;;;;6.30;4.50;;;;;;;;;;5088731;28;20039;-71
2022/06/10 10:21:02;;;;;;;8.30;4.73;;;;;;;;;;5093117;28;20039;-70
2022/06/10 10:23:29;;;;;;;7.40;4.23;;;;;;;;;;5093988;28;20035;-71
2022/06/10 10:25:56;;;;;;;7.73;4.00;;;;;;;;;;5093498;28;20028;-71
2022/06/10 10:28:22;;;;;;;13.50;5.43;;;;;;;;;;5093567;28;20035;-71
2022/06/10 10:30:59;;;;;;;9.57;3.60;;;;;;;;;;5093955;28;20028;-70
2022/06/10 10:33:26;;;;;;;7.27;3.40;;;;;;;;;;5088162;28;20103;-71
2022/06/10 10:35:54;;;;;;;4.83;2.67;;;;;;;;;;5087914;28;20059;-71
2022/06/10 10:38:40;;;;;;;6.90;2.80;;;;;;;;;;5088125;28;20473;-71
2022/06/10 10:41:22;;;;;;;6.70;2.23;;;;;;;;;;5088204;28;20043;-70
2022/06/10 10:43:51;;;;;;;3.70;2.07;;;;;;;;;;5093526;28;20027;-70
2022/06/10 10:46:24;;;;;;;9.43;2.77;;;;;;;;;;5093261;28;20054;-70
2022/06/10 10:48:51;;;;;;;8.10;2.40;;;;;;;;;;5093550;28;20482;-71
2022/06/10 10:51:22;;;;;;;4.73;2.10;;;;;;;;;;5093410;28;20153;-70
2022/06/10 10:53:51;;;;;;;10.00;2.60;;;;;;;;;;5091955;28;20403;-71
2022/06/10 10:56:19;;;;;;;7.67;2.50;;;;;;;;;;5087833;28;20028;-71
2022/06/10 10:58:54;;;;;;;9.57;2.30;;;;;;;;;;5087730;28;20502;-70
2022/06/10 11:04:05;;;;;;;5.00;2.60;;;;;;;;;;5089626;28;19929;-70
2022/06/10 11:06:33;;;;;;;4.60;2.40;;;;;;;;;;5093368;28;20027;-70
2022/06/10 11:09:02;;;;;;;8.13;2.90;;;;;;;;;;5092612;28;20032;-70
2022/06/10 11:11:32;;;;;;;11.63;3.20;;;;;;;;;;5093163;28;20027;-70
2022/06/10 11:13:59;;;;;;;5.93;2.80;;;;;;;;;;5093057;28;20107;-71
2022/06/10 11:16:32;;;;;;;9.17;3.20;;;;;;;;;;5090785;28;20405;-71
2022/06/10 11:19:01;;;;;;;8.80;3.13;;;;;;;;;;5087765;28;20020;-71
2022/06/10 11:21:28;;;;;;;5.40;2.73;;;;;;;;;;5087049;28;20089;-70
2022/06/10 11:23:56;;;;;;;5.27;2.70;;;;;;;;;;5087741;28;20103;-69
2022/06/10 11:26:25;;;;;;;7.23;2.90;;;;;;;;;;5089321;28;20479;-70
2022/06/10 11:29:03;;;;;;;6.10;2.43;;;;;;;;;;5092856;28;20065;-71
2022/06/10 11:31:40;;;;;;;6.13;2.77;;;;;;;;;;5093051;28;20020;-71
2022/06/10 11:34:16;;;;;;;4.93;2.23;;;;;;;;;;5092655;28;20044;-70
2022/06/10 11:36:49;;;;;;;4.53;2.13;;;;;;;;;;5092792;28;20103;-70
2022/06/10 11:39:18;;;;;;;4.97;2.27;;;;;;;;;;5089110;28;20019;-71
2022/06/10 11:41:57;;;;;;;10.77;2.83;;;;;;;;;;5087273;28;20095;-71
2022/06/10 11:44:26;;;;;;;4.43;2.20;;;;;;;;;;5086776;28;20028;-71
2022/06/10 11:46:52;;;;;;;4.73;2.80;;;;;;;;;;5086560;28;20307;-72
2022/06/10 11:49:32;;;;;;;5.77;2.70;;;;;;;;;;5090315;28;20020;-71
2022/06/10 11:52:14;;;;;;;4.47;2.33;;;;;;;;;;5092412;28;20024;-71
2022/06/10 11:54:40;;;;;;;5.53;2.20;;;;;;;;;;5092445;28;20032;-71
2022/06/10 12:00:12;;;;;;;6.53;3.00;;;;;;;;;;5092213;28;20039;-71
2022/06/10 12:02:54;;;;;;;6.00;2.37;;;;;;;;;;5086958;28;20769;-70
2022/06/10 12:05:24;;;;;;;5.83;2.17;;;;;;;;;;5087061;28;20084;-71
2022/06/10 12:08:04;;;;;;;7.87;2.33;;;;;;;;;;5086736;28;20081;-71
2022/06/10 12:10:36;;;;;;;3.50;2.10;;;;;;;;;;5087521;28;20360;-71
2022/06/10 12:13:03;;;;;;;6.53;2.63;;;;;;;;;;5092096;28;20107;-71
2022/06/10 12:15:34;;;;;;;4.30;2.30;;;;;;;;;;5092368;28;20024;-71
2022/06/10 12:18:03;;;;;;;6.50;2.50;;;;;;;;;;5092284;28;20486;-71
2022/06/10 12:20:44;;;;;;;6.63;3.33;;;;;;;;;;5091852;28;20029;-71
2022/06/10 12:23:24;;;;;;;6.77;2.60;;;;;;;;;;5089868;28;20020;-71
2022/06/10 12:25:54;;;;;;;5.27;2.43;;;;;;;;;;5086841;28;20744;-72
2022/06/10 12:28:33;;;;;;;7.10;2.67;;;;;;;;;;5086799;28;20528;-71
2022/06/10 12:31:22;;;;;;;6.70;3.47;;;;;;;;;;5086578;28;20043;-72
2022/06/10 12:33:55;;;;;;;6.70;2.90;;;;;;;;;;5043367;28;20376;-71
2022/06/10 12:36:27;;;;;;;7.40;3.20;;;;;;;;;;5092032;28;20502;-71
2022/06/10 12:38:55;;;;;;;6.13;2.87;;;;;;;;;;5092117;28;20078;-71
2022/06/10 12:41:23;;;;;;;6.50;2.83;;;;;;;;;;5091840;28;20032;-71
2022/06/10 12:43:53;;;;;;;5.93;2.10;;;;;;;;;;5092061;28;20028;-71
2022/06/10 12:46:20;;;;;;;6.70;2.57;;;;;;;;;;5087613;28;20467;-71
2022/06/10 12:48:47;;;;;;;6.90;2.67;;;;;;;;;;5086679;28;20560;-71
2022/06/10 12:51:14;;;;;;;6.00;2.60;;;;;;;;;;5086228;28;20089;-72
2022/06/10 12:53:53;;;;;;;4.50;2.47;;;;;;;;;;5086647;28;20768;-72
2022/06/10 12:56:27;;;;;;;5.87;2.40;;;;;;;;;;5090324;28;20107;-72
2022/06/10 12:59:14;;;;;;;4.90;2.37;;;;;;;;;;5094825;28;20091;-72
2022/06/10 13:01:46;;;;;;;4.93;2.73;;;;;;;;;;5095525;28;20070;-72
2022/06/10 13:04:14;;;;;;;7.77;2.93;;;;;;;;;;5095533;28;20081;-73
2022/06/10 13:06:44;;;;;;;6.20;2.77;;;;;;;;;;5095407;28;20020;-72
2022/06/10 13:09:15;;;;;;;5.37;2.70;;;;;;;;;;5089860;28;20032;-72
2022/06/10 13:11:52;;;;;;;6.50;2.80;;;;;;;;;;5089566;28;20497;-72
2022/06/10 13:14:33;;;;;;;5.53;2.70;;;;;;;;;;5089641;28;20402;-72
2022/06/10 13:17:00;;;;;;;5.73;2.30;;;;;;;;;;5090554;28;20024;-72
2022/06/10 13:19:31;;;;;;;6.80;2.63;;;;;;;;;;5094936;28;20036;-72
2022/06/10 13:21:59;;;;;;;5.37;2.37;;;;;;;;;;5094778;28;20032;-73
2022/06/10 13:24:26;;;;;;;3.53;2.30;;;;;;;;;;5095308;28;20045;-73
2022/06/10 13:26:53;;;;;;;5.60;2.40;;;;;;;;;;5095070;28;20032;-73
2022/06/10 13:29:21;;;;;;;8.13;2.77;;;;;;;;;;5093833;28;20042;-72
2022/06/10 13:31:55;;;;;;;4.50;2.40;;;;;;;;;;5089644;28;20024;-72
2022/06/10 13:34:38;;;;;;;5.90;2.83;;;;;;;;;;5089410;28;20032;-72
2022/06/10 13:37:24;;;;;;;5.13;2.50;;;;;;;;;;5089687;28;20028;-72
2022/06/10 13:39:52;;;;;;;4.10;2.47;;;;;;;;;;5091478;28;20044;-72
2022/06/10 13:42:24;;;;;;;4.20;2.23;;;;;;;;;;5094205;28;20024;-72
2022/06/10 13:44:50;;;;;;;10.50;2.50;;;;;;;;;;5094640;28;20023;-73
2022/06/10 13:47:27;;;;;;;3.87;2.13;;;;;;;;;;5094855;28;20028;-72
2022/06/10 13:52:48;;;;;;;2.90;1.73;;;;;;;;;;5089937;28;20036;-73
2022/06/10 13:55:32;;;;;;;3.47;1.93;;;;;;;;;;5089082;28;20500;-73
2022/06/10 13:58:03;;;;;;;4.27;2.23;;;;;;;;;;5089025;28;20020;-72
2022/06/10 14:00:31;;;;;;;3.40;1.70;;;;;;;;;;5088336;28;20036;-73
2022/06/10 14:02:59;;;;;;;3.20;1.80;;;;;;;;;;5093015;28;20016;-72
2022/06/10 14:05:28;;;;;;;5.40;1.60;;;;;;;;;;5094187;28;20024;-72
2022/06/10 14:07:56;;;;;;;3.17;1.77;;;;;;;;;;5094435;28;20490;-72
2022/06/10 14:10:24;;;;;;;3.20;1.70;;;;;;;;;;5093301;28;20115;-72
2022/06/10 14:12:59;;;;;;;2.67;1.60;;;;;;;;;;5094324;28;20028;-72
2022/06/10 14:15:28;;;;;;;3.73;1.20;;;;;;;;;;5089110;28;20024;-72
2022/06/10 14:18:27;;;;;;;3.07;1.47;;;;;;;;;;5088307;28;20020;-73
2022/06/10 14:20:54;;;;;;;3.83;1.60;;;;;;;;;;5054176;28;20048;-72
2022/06/10 14:23:24;;;;;;;2.23;1.23;;;;;;;;;;5088514;28;20094;-72
2022/06/10 14:26:04;;;;;;;1.80;1.00;;;;;;;;;;5093998;28;20517;-72
2022/06/10 14:28:31;;;;;;;3.17;1.27;;;;;;;;;;5093854;28;20459;-72
2022/06/10 14:31:01;;;;;;;1.40;0.93;;;;;;;;;;5093904;28;20102;-72
2022/06/10 14:33:32;;;;;;;2.33;0.87;;;;;;;;;;5093437;28;20024;-73
2022/06/10 14:36:07;;;;;;;1.13;0.70;;;;;;;;;;5092749;28;20111;-73
2022/06/10 14:38:34;;;;;;;2.55;1.80;;;;;;;;;;5088114;28;20020;-73
2022/06/10 14:41:02;;;;;;;2.87;0.80;;;;;;;;;;5087866;28;20036;-73
2022/06/10 14:43:30;;;;;;;2.33;0.90;;;;;;;;;;5087937;28;20043;-74
2022/06/10 14:46:08;;;;;;;0.90;0.53;;;;;;;;;;5088351;28;20031;-73
2022/06/10 14:48:44;;;;;;;1.57;0.70;;;;;;;;;;5093397;28;20026;-73
2022/06/10 14:51:16;;;;;;;2.63;1.17;;;;;;;;;;5093575;28;20035;-73
2022/06/10 14:53:44;;;;;;;1.17;0.73;;;;;;;;;;5093410;28;20460;-73
2022/06/10 14:56:14;;;;;;;1.27;0.80;;;;;;;;;;5092780;28;20374;-74
2022/06/10 14:58:41;;;;;;;1.47;0.77;;;;;;;;;;5091175;28;20024;-74
2022/06/10 15:01:13;;;;;;;1.43;0.80;;;;;;;;;;5087764;28;20028;-73
2022/06/10 15:03:40;;;;;;;0.87;0.50;;;;;;;;;;5087827;28;20418;-74
2022/06/10 15:06:20;;;;;;;0.83;0.60;;;;;;;;;;5087791;28;20091;-74
2022/06/10 15:08:51;;;;;;;0.90;0.70;;;;;;;;;;5088995;28;20383;-74
2022/06/10 15:11:18;;;;;;;1.30;0.70;;;;;;;;;;5092748;28;20028;-74
2022/06/10 15:13:46;;;;;;;2.67;0.70;;;;;;;;;;5092852;28;20024;-74
2022/06/10 15:16:15;;;;;;;1.10;0.73;;;;;;;;;;5075032;28;20363;-74
2022/06/10 15:18:42;;;;;;;1.67;0.90;;;;;;;;;;5093083;28;20031;-73
2022/06/10 15:21:13;;;;;;;0.80;0.50;;;;;;;;;;5089617;28;20042;-73
2022/06/10 15:23:41;;;;;;;1.23;0.60;;;;;;;;;;5087438;28;20484;-74
2022/06/10 15:26:09;;;;;;;2.90;0.70;;;;;;;;;;5087309;28;20081;-74
2022/06/10 15:28:38;;;;;;;1.90;0.67;;;;;;;;;;5087366;28;20370;-74
2022/06/10 15:31:04;;;;;;;0.70;0.60;;;;;;;;;;5089490;28;20027;-74